Time;durP1;ratioP1;P1;durP2;ratioP2;P2;SDS_P1;SDS_P2;PMS_P1;PMS_P2;Temp;Humidity;BMP_temperature;BMP_pressure;BME280_temperature;BME280_humidity;BME280_pressure;Samples;Min_cycle;Max_cycle;Signal;HPM_P1;HPM_P2
2022/04/05 00:01:58;;;;;;;10.40;7.47;;;4.60;99.90;;;;;;5019652;28;20743;-83
2022/04/05 00:04:24;;;;;;;8.55;6.82;;;4.50;99.90;;;;;;5020231;28;20286;-82
2022/04/05 00:06:51;;;;;;;5.95;5.43;;;4.50;99.90;;;;;;5019954;28;20203;-83
2022/04/05 00:09:18;;;;;;;7.32;6.75;;;4.50;99.90;;;;;;5018177;28;20210;-82
2022/04/05 00:11:45;;;;;;;6.47;5.85;;;4.40;99.90;;;;;;5019436;28;20388;-82
2022/04/05 00:14:12;;;;;;;7.18;6.55;;;4.50;99.90;;;;;;5017066;28;20226;-83
2022/04/05 00:16:40;;;;;;;8.40;6.45;;;4.40;99.90;;;;;;5017078;28;20206;-84
2022/04/05 00:19:07;;;;;;;5.70;5.03;;;4.50;99.90;;;;;;5017056;28;20286;-83
2022/04/05 00:21:34;;;;;;;5.15;4.65;;;4.50;99.90;;;;;;5016849;28;20683;-84
2022/04/05 00:24:01;;;;;;;8.00;7.35;;;4.50;99.90;;;;;;5016486;28;20202;-84
2022/04/05 00:26:28;;;;;;;8.02;7.32;;;4.50;99.90;;;;;;5016838;28;20610;-84
2022/04/05 00:28:54;;;;;;;5.88;5.38;;;4.50;99.90;;;;;;5016313;28;20590;-84
2022/04/05 00:31:21;;;;;;;7.45;6.85;;;4.50;99.90;;;;;;5017052;28;20203;-82
2022/04/05 00:33:49;;;;;;;7.72;6.95;;;4.60;99.90;;;;;;5016579;28;20211;-84
2022/04/05 00:36:16;;;;;;;6.13;5.53;;;4.50;99.90;;;;;;5017008;28;20210;-84
2022/04/05 00:38:43;;;;;;;5.65;4.88;;;4.50;99.90;;;;;;5015840;28;20230;-84
2022/04/05 00:41:09;;;;;;;6.35;5.38;;;4.50;99.90;;;;;;5016220;28;20906;-83
2022/04/05 00:43:36;;;;;;;6.90;6.25;;;4.50;99.90;;;;;;5016468;28;20680;-84
2022/04/05 00:46:03;;;;;;;6.97;6.38;;;4.50;99.90;;;;;;5016205;28;20262;-82
2022/04/05 00:48:41;;;;;;;6.72;5.93;;;4.50;99.90;;;;;;5016177;28;20238;-84
2022/04/05 00:51:10;;;;;;;7.10;6.50;;;4.50;99.90;;;;;;5015679;28;20225;-84
2022/04/05 00:53:39;;;;;;;6.60;5.78;;;4.50;99.90;;;;;;5015631;28;20203;-84
2022/04/05 00:56:08;;;;;;;7.32;5.40;;;4.40;99.90;;;;;;5015905;28;20714;-84
2022/04/05 00:58:36;;;;;;;7.40;6.38;;;4.60;99.90;;;;;;5015726;28;20226;-84
2022/04/05 01:01:06;;;;;;;6.65;5.35;;;4.60;99.90;;;;;;5015957;28;20211;-84
2022/04/05 01:03:34;;;;;;;7.93;7.30;;;4.60;99.90;;;;;;5015593;28;20269;-84
2022/04/05 01:06:04;;;;;;;8.52;7.60;;;4.60;99.90;;;;;;5016074;28;20211;-84
2022/04/05 01:08:33;;;;;;;7.75;6.65;;;4.70;99.90;;;;;;5016379;28;20227;-84
2022/04/05 01:11:01;;;;;;;7.93;7.15;;;4.70;99.90;;;;;;5015708;28;20206;-83
2022/04/05 01:13:31;;;;;;;8.55;7.75;;;4.70;99.90;;;;;;5016223;28;20213;-84
2022/04/05 01:15:58;;;;;;;8.57;7.72;;;4.70;99.90;;;;;;5015625;28;20225;-83
2022/04/05 01:18:25;;;;;;;5.45;4.80;;;4.70;99.90;;;;;;5016047;28;20310;-84
2022/04/05 01:20:52;;;;;;;6.45;5.85;;;4.70;99.90;;;;;;5017866;28;20199;-84
2022/04/05 01:23:22;;;;;;;8.35;7.35;;;4.70;99.90;;;;;;5019924;28;20209;-84
2022/04/05 01:25:52;;;;;;;5.60;5.07;;;4.70;99.90;;;;;;5019484;28;20296;-85
2022/04/05 01:28:20;;;;;;;7.70;6.28;;;4.60;99.90;;;;;;5019594;28;20231;-83
2022/04/05 01:30:47;;;;;;;8.23;5.93;;;4.70;99.90;;;;;;5018949;28;20214;-85
2022/04/05 01:33:15;;;;;;;8.52;6.63;;;4.60;99.90;;;;;;5019560;28;20629;-83
2022/04/05 01:35:49;;;;;;;7.32;6.82;;;4.60;99.90;;;;;;5019327;28;20386;-84
2022/04/05 01:38:19;;;;;;;7.50;6.80;;;4.40;99.90;;;;;;5018836;28;20606;-83
2022/04/05 01:40:46;;;;;;;6.65;5.97;;;4.50;99.90;;;;;;5018661;28;20257;-84
2022/04/05 01:43:14;;;;;;;6.70;6.10;;;4.50;99.90;;;;;;5018769;28;20214;-84
2022/04/05 01:45:44;;;;;;;7.15;5.57;;;4.50;99.90;;;;;;5019246;28;20207;-84
2022/04/05 01:48:11;;;;;;;9.18;6.15;;;4.50;99.90;;;;;;5019380;28;20293;-83
2022/04/05 01:50:38;;;;;;;9.20;8.35;;;4.50;99.90;;;;;;5018375;28;20214;-84
2022/04/05 01:53:05;;;;;;;7.55;6.75;;;4.40;99.90;;;;;;5018982;28;20223;-84
2022/04/05 01:55:31;;;;;;;6.78;6.22;;;4.50;99.90;;;;;;5019065;28;20762;-83
2022/04/05 01:58:00;;;;;;;8.07;6.68;;;4.60;99.90;;;;;;5019307;28;20310;-84
2022/04/05 02:00:29;;;;;;;6.10;5.50;;;4.60;99.90;;;;;;5019174;28;20691;-83
2022/04/05 02:02:55;;;;;;;7.30;6.70;;;4.60;99.90;;;;;;5018775;28;20207;-84
2022/04/05 02:05:22;;;;;;;7.30;6.60;;;4.70;99.90;;;;;;5018752;28;20209;-85
2022/04/05 02:07:49;;;;;;;7.00;5.43;;;4.70;99.90;;;;;;5017755;28;20232;-84
2022/04/05 02:10:16;;;;;;;5.22;4.82;;;4.70;99.90;;;;;;5018910;28;20207;-84
2022/04/05 02:12:43;;;;;;;8.90;6.65;;;4.60;99.90;;;;;;5018333;28;20206;-84
2022/04/05 02:15:12;;;;;;;7.03;6.32;;;4.70;99.90;;;;;;5017647;28;20223;-84
2022/04/05 02:17:40;;;;;;;5.07;4.65;;;4.60;99.90;;;;;;5017940;28;20239;-84
2022/04/05 02:20:09;;;;;;;8.82;6.75;;;4.50;99.90;;;;;;5017841;28;20692;-85
2022/04/05 02:22:36;;;;;;;7.90;6.70;;;4.60;99.90;;;;;;5018574;28;20234;-84
2022/04/05 02:25:03;;;;;;;6.40;5.95;;;4.60;99.90;;;;;;5017818;28;20207;-84
2022/04/05 02:27:30;;;;;;;5.85;4.97;;;4.60;99.90;;;;;;5018479;28;20254;-84
2022/04/05 02:29:57;;;;;;;8.45;7.65;;;4.60;99.90;;;;;;5018494;28;20211;-84
2022/04/05 02:32:24;;;;;;;6.88;6.28;;;4.70;99.90;;;;;;5018039;28;20206;-84
2022/04/05 02:34:52;;;;;;;4.78;4.35;;;4.60;99.90;;;;;;5017688;28;20233;-84
2022/04/05 02:37:19;;;;;;;18.02;7.78;;;4.60;99.90;;;;;;5017856;28;20231;-83
2022/04/05 02:39:46;;;;;;;7.80;7.15;;;4.60;99.90;;;;;;5017569;28;20207;-84
2022/04/05 02:42:13;;;;;;;4.88;4.47;;;4.70;99.90;;;;;;5017801;28;20207;-84
2022/04/05 02:44:39;;;;;;;5.80;5.38;;;4.60;99.90;;;;;;5018257;28;20568;-84
2022/04/05 02:47:07;;;;;;;7.82;6.90;;;4.70;99.90;;;;;;5017913;28;20211;-84
2022/04/05 02:49:34;;;;;;;7.20;6.50;;;4.70;99.90;;;;;;5017900;28;20216;-83
2022/04/05 02:52:03;;;;;;;9.23;6.30;;;4.70;99.90;;;;;;5017323;28;20211;-84
2022/04/05 02:54:30;;;;;;;5.45;5.00;;;4.70;99.90;;;;;;5017463;28;20202;-83
2022/04/05 02:56:57;;;;;;;9.05;6.47;;;4.70;99.90;;;;;;5017626;28;20210;-84
2022/04/05 02:59:23;;;;;;;6.32;4.90;;;4.70;99.90;;;;;;5017211;28;20214;-84
2022/04/05 03:01:50;;;;;;;6.78;5.70;;;4.80;99.90;;;;;;5018115;28;20203;-83
2022/04/05 03:04:18;;;;;;;7.45;6.30;;;4.60;99.90;;;;;;5017790;28;20215;-84
2022/04/05 03:06:45;;;;;;;7.80;5.90;;;4.70;99.90;;;;;;5019017;28;20202;-84
2022/04/05 03:09:13;;;;;;;7.20;6.50;;;4.60;99.90;;;;;;5017659;28;20223;-83
2022/04/05 03:11:39;;;;;;;8.48;7.68;;;4.60;99.90;;;;;;5017062;28;20211;-84
2022/04/05 03:14:06;;;;;;;5.90;3.78;;;4.60;99.90;;;;;;5017388;28;20210;-84
2022/04/05 03:16:37;;;;;;;7.03;5.40;;;4.60;99.90;;;;;;5017366;28;20230;-84
2022/04/05 03:19:07;;;;;;;8.13;6.32;;;4.60;99.90;;;;;;5017056;28;20700;-85
2022/04/05 03:21:39;;;;;;;8.00;7.00;;;4.60;99.90;;;;;;5016341;28;20206;-84
2022/04/05 03:24:08;;;;;;;6.05;5.55;;;4.60;99.90;;;;;;5016863;28;20210;-84
2022/04/05 03:26:42;;;;;;;6.22;5.70;;;4.60;99.90;;;;;;5017330;28;20237;-84
2022/04/05 03:29:08;;;;;;;7.57;6.88;;;4.60;99.90;;;;;;5052382;22;20230;-80
2022/04/05 03:31:35;;;;;;;7.30;6.57;;;4.70;99.90;;;;;;5042327;28;20216;-81
2022/04/05 03:34:02;;;;;;;7.65;6.95;;;4.70;99.90;;;;;;5042478;28;20206;-81
2022/04/05 03:36:29;;;;;;;8.35;5.03;;;4.80;99.90;;;;;;5042129;28;20240;-81
2022/04/05 03:38:56;;;;;;;6.18;5.53;;;4.70;99.90;;;;;;5042340;28;20276;-81
2022/04/05 03:41:22;;;;;;;8.05;7.38;;;4.80;99.90;;;;;;5042814;28;20210;-81
2022/04/05 03:43:50;;;;;;;8.85;7.72;;;4.80;99.90;;;;;;5042899;28;20240;-81
2022/04/05 03:46:17;;;;;;;8.98;7.00;;;4.80;99.90;;;;;;5043457;28;20209;-81
2022/04/05 03:48:44;;;;;;;6.10;5.00;;;4.80;99.90;;;;;;5042703;28;20218;-81
2022/04/05 03:51:10;;;;;;;9.57;7.40;;;4.80;99.90;;;;;;5043303;28;20214;-81
2022/04/05 03:53:37;;;;;;;9.00;6.57;;;4.90;99.90;;;;;;5044306;28;20210;-80
2022/04/05 03:56:04;;;;;;;6.20;5.55;;;5.00;99.90;;;;;;5043895;28;20594;-81
2022/04/05 03:58:31;;;;;;;8.02;7.05;;;5.00;99.90;;;;;;5043078;28;20248;-81
2022/04/05 04:00:59;;;;;;;6.75;4.53;;;4.90;99.90;;;;;;5044312;28;20210;-81
2022/04/05 04:03:25;;;;;;;6.60;5.65;;;4.90;99.90;;;;;;5047060;28;20202;-80
2022/04/05 04:05:52;;;;;;;4.13;3.78;;;5.00;99.90;;;;;;5046119;28;20209;-80
2022/04/05 04:08:19;;;;;;;5.78;5.22;;;5.00;99.90;;;;;;5046463;28;20231;-81
2022/04/05 04:10:48;;;;;;;5.15;4.72;;;5.10;99.90;;;;;;5044502;28;20214;-81
2022/04/05 04:13:15;;;;;;;9.30;8.40;;;5.00;99.90;;;;;;5044073;28;20206;-81
2022/04/05 04:15:42;;;;;;;5.97;5.35;;;5.00;99.90;;;;;;5044299;28;20229;-82
2022/04/05 04:18:10;;;;;;;6.47;5.40;;;5.00;99.90;;;;;;5043764;28;21080;-81
2022/04/05 04:20:38;;;;;;;8.30;5.35;;;5.10;99.90;;;;;;5042968;28;20209;-81
2022/04/05 04:23:05;;;;;;;4.68;4.28;;;5.00;99.90;;;;;;5042655;28;20206;-81
2022/04/05 04:25:34;;;;;;;7.43;6.60;;;5.00;99.90;;;;;;5042856;28;20198;-81
2022/04/05 04:28:01;;;;;;;7.00;5.88;;;5.00;99.90;;;;;;5041963;28;20245;-82
2022/04/05 04:30:27;;;;;;;5.95;5.45;;;4.90;99.90;;;;;;5041937;28;20202;-81
2022/04/05 04:32:55;;;;;;;8.43;7.63;;;4.80;99.90;;;;;;5042837;28;20204;-82
2022/04/05 04:35:23;;;;;;;10.35;8.25;;;4.80;99.90;;;;;;5043016;28;20730;-82
2022/04/05 04:37:50;;;;;;;7.53;6.82;;;4.70;99.90;;;;;;5044164;28;20245;-82
2022/04/05 04:40:16;;;;;;;10.10;9.18;;;4.70;99.90;;;;;;5043193;28;20198;-82
2022/04/05 04:42:43;;;;;;;9.27;7.03;;;4.60;99.90;;;;;;5043512;28;20213;-82
2022/04/05 04:45:11;;;;;;;8.95;8.05;;;4.70;99.90;;;;;;5043180;28;20207;-82
2022/04/05 04:47:38;;;;;;;7.15;6.55;;;4.60;99.90;;;;;;5040816;28;20233;-81
2022/04/05 04:50:06;;;;;;;8.35;7.57;;;4.40;99.90;;;;;;5041246;28;20216;-81
2022/04/05 04:52:34;;;;;;;5.80;5.13;;;4.40;99.90;;;;;;5041749;28;20214;-82
2022/04/05 04:55:01;;;;;;;6.63;6.03;;;4.30;99.90;;;;;;5042553;28;20202;-81
2022/04/05 04:57:28;;;;;;;14.13;6.95;;;4.20;99.90;;;;;;5047885;28;20236;-81
2022/04/05 04:59:54;;;;;;;6.22;5.63;;;4.30;99.90;;;;;;5047590;28;20204;-81
2022/04/05 05:02:22;;;;;;;8.63;7.82;;;4.20;99.90;;;;;;5047551;28;20209;-81
2022/04/05 05:04:49;;;;;;;8.60;7.70;;;4.20;99.90;;;;;;5047016;28;20198;-81
2022/04/05 05:07:16;;;;;;;8.82;6.13;;;4.20;99.90;;;;;;5047777;28;20209;-81
2022/04/05 05:09:44;;;;;;;9.90;8.45;;;4.20;99.90;;;;;;5047713;28;20202;-81
2022/04/05 05:12:11;;;;;;;10.65;7.55;;;4.20;99.90;;;;;;5047913;28;20206;-82
2022/04/05 05:14:38;;;;;;;8.25;7.43;;;4.30;99.90;;;;;;5047827;28;20206;-81
2022/04/05 05:17:05;;;;;;;9.40;8.20;;;4.30;99.90;;;;;;5028321;28;20233;-81
2022/04/05 05:19:33;;;;;;;6.18;5.65;;;4.30;99.90;;;;;;5033544;28;20655;-81
2022/04/05 05:22:00;;;;;;;7.40;6.72;;;4.30;99.90;;;;;;5045894;28;20217;-81
2022/04/05 05:24:27;;;;;;;7.68;6.97;;;4.20;99.90;;;;;;5047922;28;20213;-82
2022/04/05 05:26:55;;;;;;;6.80;6.18;;;4.30;99.90;;;;;;5047837;28;20208;-82
2022/04/05 05:29:21;;;;;;;10.73;7.10;;;4.30;99.90;;;;;;5048643;28;20237;-81
2022/04/05 05:31:48;;;;;;;7.07;5.70;;;4.40;99.90;;;;;;5049059;28;20216;-82
2022/04/05 05:34:20;;;;;;;8.23;6.80;;;4.40;99.90;;;;;;5048078;28;20206;-80
2022/04/05 05:36:47;;;;;;;9.65;8.40;;;4.30;99.90;;;;;;5047082;28;20229;-81
2022/04/05 05:39:14;;;;;;;8.48;6.70;;;4.40;99.90;;;;;;5047525;28;20229;-81
2022/04/05 05:41:40;;;;;;;8.38;6.90;;;4.50;99.90;;;;;;5050769;28;20203;-83
2022/04/05 05:44:08;;;;;;;8.38;7.65;;;4.50;99.90;;;;;;5051894;28;20702;-83
2022/04/05 05:46:36;;;;;;;7.97;5.90;;;4.40;99.90;;;;;;5051483;28;20201;-84
2022/04/05 05:49:02;;;;;;;7.55;6.85;;;4.40;99.90;;;;;;5051259;28;20229;-84
2022/04/05 05:51:29;;;;;;;7.80;7.20;;;4.50;99.90;;;;;;5050069;28;20210;-85
2022/04/05 05:53:56;;;;;;;7.78;7.05;;;4.40;99.90;;;;;;5050159;28;20204;-84
2022/04/05 05:56:23;;;;;;;8.15;6.65;;;4.40;99.90;;;;;;5037062;28;20238;-83
2022/04/05 05:58:50;;;;;;;8.70;7.90;;;4.50;99.90;;;;;;5039306;28;20226;-84
2022/04/05 06:01:18;;;;;;;7.32;6.63;;;4.50;99.90;;;;;;5036586;28;20199;-85
2022/04/05 06:03:45;;;;;;;8.57;7.78;;;4.40;99.90;;;;;;5038249;28;20209;-84
2022/04/05 06:06:12;;;;;;;11.88;7.55;;;4.40;99.90;;;;;;5035750;28;20264;-83
2022/04/05 06:08:39;;;;;;;9.25;7.55;;;4.50;99.90;;;;;;5036061;28;20221;-84
2022/04/05 06:11:07;;;;;;;7.43;6.75;;;4.50;99.90;;;;;;5037177;28;20236;-84
2022/04/05 06:13:35;;;;;;;8.75;7.80;;;4.40;99.90;;;;;;5027907;28;20209;-83
2022/04/05 06:16:01;;;;;;;9.85;7.72;;;4.50;99.90;;;;;;5017954;28;20233;-81
2022/04/05 06:18:30;;;;;;;8.20;6.38;;;4.50;99.90;;;;;;5030460;28;20258;-80
2022/04/05 06:20:56;;;;;;;9.32;6.95;;;4.40;99.90;;;;;;5018857;28;20778;-80
2022/04/05 06:23:23;;;;;;;12.45;7.85;;;4.50;99.90;;;;;;5036892;28;20210;-80
2022/04/05 06:25:50;;;;;;;6.50;5.90;;;4.50;99.90;;;;;;5033020;28;20215;-85
2022/04/05 06:28:18;;;;;;;6.07;5.47;;;4.60;99.90;;;;;;5032700;28;20244;-84
2022/04/05 06:30:46;;;;;;;8.23;7.43;;;4.60;99.90;;;;;;5043164;28;20206;-81
2022/04/05 06:33:15;;;;;;;10.35;8.15;;;4.50;99.90;;;;;;5023873;28;20203;-80
2022/04/05 06:35:46;;;;;;;8.77;7.07;;;4.50;99.90;;;;;;5038893;28;20194;-81
2022/04/05 06:38:13;;;;;;;8.63;7.93;;;4.60;99.90;;;;;;5036119;28;20225;-82
2022/04/05 06:40:43;;;;;;;8.68;7.88;;;4.60;99.90;;;;;;5035846;28;20191;-81
2022/04/05 06:43:10;;;;;;;15.45;8.00;;;4.60;99.90;;;;;;5036716;28;20211;-82
2022/04/05 06:45:37;;;;;;;7.50;6.88;;;4.70;99.90;;;;;;5040225;28;20213;-82
2022/04/05 06:48:06;;;;;;;7.20;6.60;;;4.70;99.90;;;;;;5043343;28;20629;-82
2022/04/05 06:50:33;;;;;;;6.90;5.35;;;4.80;99.90;;;;;;5047130;28;20269;-83
2022/04/05 06:53:01;;;;;;;5.63;4.43;;;4.70;99.90;;;;;;5046174;28;20206;-83
2022/04/05 06:55:28;;;;;;;7.30;6.65;;;4.70;99.90;;;;;;5041343;28;20216;-82
2022/04/05 06:57:56;;;;;;;7.25;6.55;;;4.80;99.90;;;;;;5040662;28;20236;-82
2022/04/05 07:00:24;;;;;;;9.43;6.18;;;4.90;99.90;;;;;;5041354;28;20202;-82
2022/04/05 07:02:52;;;;;;;6.15;5.60;;;4.90;99.90;;;;;;5036909;28;20571;-82
2022/04/05 07:05:20;;;;;;;7.15;6.40;;;4.80;99.90;;;;;;5039287;28;20819;-84
2022/04/05 07:07:47;;;;;;;8.27;7.40;;;4.90;99.90;;;;;;5043768;28;20230;-83
2022/04/05 07:10:16;;;;;;;5.50;5.00;;;4.90;99.90;;;;;;5036915;28;20207;-82
2022/04/05 07:12:44;;;;;;;5.32;4.43;;;4.90;99.90;;;;;;5037147;28;20205;-83
2022/04/05 07:15:11;;;;;;;8.02;6.70;;;5.00;99.90;;;;;;5037311;28;20240;-82
2022/04/05 07:17:38;;;;;;;6.03;5.18;;;5.10;99.90;;;;;;5037934;28;20230;-83
2022/04/05 07:20:09;;;;;;;10.27;6.75;;;5.10;99.90;;;;;;5038119;28;20716;-82
2022/04/05 07:22:36;;;;;;;8.55;5.90;;;5.10;99.90;;;;;;5035171;28;20198;-82
2022/04/05 07:25:03;;;;;;;7.82;7.05;;;5.20;99.90;;;;;;5035608;28;20213;-82
2022/04/05 07:27:31;;;;;;;6.45;5.90;;;5.30;99.90;;;;;;5034440;28;20226;-82
2022/04/05 07:29:58;;;;;;;8.77;6.25;;;5.30;99.90;;;;;;5038576;28;20210;-83
2022/04/05 07:32:25;;;;;;;6.50;5.50;;;5.30;99.90;;;;;;5040468;28;20678;-85
2022/04/05 07:34:51;;;;;;;5.15;4.30;;;5.30;99.90;;;;;;5041990;28;20214;-84
2022/04/05 07:37:18;;;;;;;8.52;6.50;;;5.40;99.90;;;;;;5043835;28;20222;-84
2022/04/05 07:39:45;;;;;;;6.90;5.90;;;5.50;99.90;;;;;;5046830;28;20205;-84
2022/04/05 07:42:12;;;;;;;6.63;6.00;;;5.50;99.90;;;;;;5041838;28;20210;-84
2022/04/05 07:44:40;;;;;;;7.03;6.22;;;5.60;99.90;;;;;;5041370;28;20268;-83
2022/04/05 07:47:07;;;;;;;6.85;6.25;;;5.80;99.90;;;;;;5042854;28;20205;-83
2022/04/05 07:49:34;;;;;;;7.85;6.63;;;5.90;99.90;;;;;;5041536;28;20199;-81
2022/04/05 07:52:01;;;;;;;7.20;6.43;;;5.90;99.90;;;;;;5034350;28;20575;-81
2022/04/05 07:54:27;;;;;;;13.13;5.72;;;6.00;99.90;;;;;;5036556;28;20210;-82
2022/04/05 07:56:54;;;;;;;7.95;6.07;;;6.10;99.90;;;;;;5036726;28;20234;-81
2022/04/05 07:59:21;;;;;;;8.18;6.38;;;6.10;99.90;;;;;;5038920;28;20227;-80
2022/04/05 08:01:49;;;;;;;6.63;4.15;;;6.10;99.90;;;;;;5039427;28;20206;-82
2022/04/05 08:04:16;;;;;;;7.07;6.38;;;6.30;99.90;;;;;;5037967;28;20209;-81
2022/04/05 08:06:42;;;;;;;5.35;4.57;;;6.40;99.90;;;;;;5036211;28;20206;-82
2022/04/05 08:09:09;;;;;;;5.93;5.30;;;6.50;99.90;;;;;;5038941;28;20711;-83
2022/04/05 08:11:36;;;;;;;6.82;5.85;;;6.50;99.90;;;;;;5037164;28;20202;-82
2022/04/05 08:14:03;;;;;;;6.68;6.07;;;6.70;99.90;;;;;;5034809;28;20837;-83
2022/04/05 08:16:30;;;;;;;5.75;5.25;;;6.70;99.90;;;;;;5038310;28;20691;-84
2022/04/05 08:18:58;;;;;;;5.82;5.15;;;6.70;99.90;;;;;;5040372;28;20222;-81
2022/04/05 08:21:25;;;;;;;6.50;5.88;;;6.70;99.90;;;;;;5032635;28;20194;-81
2022/04/05 08:23:52;;;;;;;8.95;5.50;;;6.70;99.90;;;;;;5034903;28;20228;-81
2022/04/05 08:26:19;;;;;;;5.88;4.78;;;6.70;99.90;;;;;;5034484;28;20248;-81
2022/04/05 08:28:46;;;;;;;7.57;6.95;;;6.60;99.90;;;;;;5034702;28;20261;-82
2022/04/05 08:31:13;;;;;;;6.35;5.60;;;6.60;99.90;;;;;;5033965;28;20590;-81
2022/04/05 08:33:40;;;;;;;7.78;6.15;;;6.70;99.90;;;;;;5034283;28;20359;-81
2022/04/05 08:36:08;;;;;;;6.68;6.15;;;6.70;99.90;;;;;;5035518;28;20668;-84
2022/04/05 08:38:35;;;;;;;6.30;5.72;;;6.70;99.90;;;;;;5041186;28;20241;-81
2022/04/05 08:41:04;;;;;;;6.43;5.82;;;6.80;99.90;;;;;;5041096;28;20403;-83
2022/04/05 08:43:42;;;;;;;7.53;5.20;;;6.70;99.90;;;;;;5044124;28;20213;-82
2022/04/05 08:46:10;;;;;;;7.95;6.90;;;6.80;99.90;;;;;;5046179;28;20210;-83
2022/04/05 08:48:38;;;;;;;7.15;5.22;;;6.70;99.90;;;;;;5041216;28;20230;-81
2022/04/05 08:51:05;;;;;;;6.35;5.43;;;6.60;99.90;;;;;;5038712;28;20210;-81
2022/04/05 08:53:35;;;;;;;7.18;6.47;;;6.70;99.90;;;;;;5043405;28;20206;-83
2022/04/05 08:56:02;;;;;;;8.70;7.47;;;6.80;99.90;;;;;;5039806;28;20206;-83
2022/04/05 08:58:28;;;;;;;5.97;5.47;;;7.00;99.90;;;;;;5038970;28;20241;-83
2022/04/05 09:00:55;;;;;;;6.05;5.53;;;7.00;99.90;;;;;;5044290;28;20213;-82
2022/04/05 09:03:22;;;;;;;7.00;5.82;;;7.00;99.90;;;;;;5043228;28;20217;-80
2022/04/05 09:05:50;;;;;;;7.40;6.50;;;7.00;99.90;;;;;;5039731;28;20207;-81
2022/04/05 09:08:22;;;;;;;7.95;6.00;;;7.10;99.90;;;;;;5035868;28;20636;-80
2022/04/05 09:10:52;;;;;;;5.05;4.55;;;7.00;99.90;;;;;;5034533;28;20237;-81
2022/04/05 09:13:21;;;;;;;6.75;5.88;;;7.20;99.90;;;;;;5038409;28;20672;-83
2022/04/05 09:15:51;;;;;;;6.32;5.85;;;7.20;99.90;;;;;;5037374;28;20209;-83
2022/04/05 09:18:31;;;;;;;6.53;5.97;;;7.30;99.90;;;;;;5035362;28;20226;-83
2022/04/05 09:20:58;;;;;;;6.13;4.90;;;7.40;99.90;;;;;;5041277;28;20206;-82
2022/04/05 09:23:27;;;;;;;4.07;3.70;;;7.50;99.90;;;;;;5040475;28;20203;-82
2022/04/05 09:26:00;;;;;;;7.82;5.57;;;7.50;99.90;;;;;;5041085;28;20198;-80
2022/04/05 09:28:32;;;;;;;6.32;5.72;;;7.50;99.90;;;;;;5033024;28;20234;-82
2022/04/05 09:31:00;;;;;;;6.20;5.40;;;7.60;99.90;;;;;;5036073;28;20282;-82
2022/04/05 09:33:29;;;;;;;5.47;4.95;;;7.50;99.90;;;;;;5026760;28;20198;-82
2022/04/05 09:36:10;;;;;;;5.97;5.38;;;7.60;99.90;;;;;;5042733;28;20206;-83
2022/04/05 09:38:38;;;;;;;4.70;3.95;;;7.50;99.90;;;;;;5044652;28;20229;-82
2022/04/05 09:41:16;;;;;;;6.47;5.72;;;7.50;99.90;;;;;;5037499;28;20591;-82
2022/04/05 09:43:58;;;;;;;5.95;5.50;;;7.60;99.90;;;;;;5038471;28;20206;-83
2022/04/05 09:46:28;;;;;;;4.90;4.47;;;7.60;99.90;;;;;;5040688;28;20198;-83
2022/04/05 09:49:07;;;;;;;6.20;5.60;;;7.60;99.90;;;;;;5041411;28;20634;-82
2022/04/05 09:51:39;;;;;;;6.88;6.18;;;7.50;99.90;;;;;;5041825;28;20206;-81
2022/04/05 09:54:06;;;;;;;6.55;5.85;;;7.50;99.90;;;;;;5040465;28;20660;-82
2022/04/05 09:56:38;;;;;;;6.82;6.22;;;7.60;99.90;;;;;;5046138;28;20229;-84
2022/04/05 09:59:13;;;;;;;5.95;5.45;;;7.60;99.90;;;;;;5045460;28;20222;-84
2022/04/05 10:01:41;;;;;;;6.50;5.60;;;7.70;99.90;;;;;;5042296;28;20194;-84
2022/04/05 10:04:09;;;;;;;6.35;5.85;;;7.70;99.90;;;;;;5041453;28;20213;-84
2022/04/05 10:06:39;;;;;;;4.35;4.05;;;7.80;99.90;;;;;;5042740;28;20209;-83
2022/04/05 10:09:07;;;;;;;6.85;5.57;;;7.80;99.90;;;;;;5047090;28;20228;-83
2022/04/05 10:11:37;;;;;;;9.18;5.90;;;7.80;99.90;;;;;;5042297;28;20232;-83
2022/04/05 10:14:05;;;;;;;5.47;5.07;;;7.80;99.90;;;;;;5041386;28;20212;-84
2022/04/05 10:16:33;;;;;;;6.25;5.63;;;7.80;99.90;;;;;;5042211;28;20571;-83
2022/04/05 10:19:03;;;;;;;6.03;5.35;;;8.00;99.90;;;;;;5043755;28;20569;-84
2022/04/05 10:21:30;;;;;;;6.50;5.93;;;7.90;99.90;;;;;;5042422;28;20202;-84
2022/04/05 10:24:00;;;;;;;5.47;5.03;;;8.00;99.90;;;;;;5042716;28;20206;-85
2022/04/05 10:26:41;;;;;;;6.80;6.13;;;8.10;99.90;;;;;;5041763;28;20207;-85
2022/04/05 10:29:10;;;;;;;5.10;4.60;;;8.20;99.90;;;;;;5042499;28;20296;-83
2022/04/05 10:31:48;;;;;;;6.70;6.20;;;8.30;99.90;;;;;;5039015;28;20655;-84
2022/04/05 10:34:20;;;;;;;5.78;5.28;;;8.40;99.90;;;;;;5041715;28;20297;-83
2022/04/05 10:37:12;;;;;;;6.57;6.05;;;8.30;99.90;;;;;;5042255;28;20191;-83
2022/04/05 10:39:40;;;;;;;6.95;4.70;;;8.40;99.90;;;;;;5024041;28;20243;-83
2022/04/05 10:42:38;;;;;;;6.00;5.50;;;8.30;99.90;;;;;;5025219;28;20202;-85
2022/04/05 10:45:13;;;;;;;6.55;5.90;;;8.20;99.90;;;;;;5034184;28;20642;-83
2022/04/05 10:48:12;;;;;;;4.78;4.05;;;8.30;99.90;;;;;;5038735;28;20301;-83
2022/04/05 10:50:39;;;;;;;7.22;5.65;;;8.20;99.90;;;;;;5037151;28;20237;-83
2022/04/05 10:53:18;;;;;;;7.00;6.47;;;8.20;99.90;;;;;;5042096;28;20210;-83
2022/04/05 10:56:14;;;;;;;5.45;4.95;;;8.50;99.90;;;;;;5041499;28;20194;-83
2022/04/05 10:58:58;;;;;;;5.82;5.32;;;8.60;99.90;;;;;;5041388;28;20234;-85
2022/04/05 11:01:26;;;;;;;4.50;4.10;;;8.60;99.90;;;;;;5041618;28;20205;-84
2022/04/05 11:04:28;;;;;;;6.65;5.43;;;8.70;99.90;;;;;;5043912;28;20211;-84
2022/04/05 11:07:12;;;;;;;5.85;4.05;;;8.70;99.90;;;;;;5042169;28;20232;-84
2022/04/05 11:09:55;;;;;;;6.78;4.20;;;8.80;99.90;;;;;;5047962;28;20272;-84
2022/04/05 11:12:24;;;;;;;5.60;4.63;;;8.70;99.90;;;;;;5023497;28;20223;-84
2022/04/05 11:14:57;;;;;;;5.82;4.95;;;8.90;99.90;;;;;;5034308;28;20741;-85
2022/04/05 11:17:26;;;;;;;5.55;4.07;;;8.90;99.90;;;;;;5040956;28;20227;-84
2022/04/05 11:19:55;;;;;;;3.30;3.00;;;8.90;99.90;;;;;;5045677;28;20290;-85
2022/04/05 11:22:31;;;;;;;3.72;3.42;;;8.80;99.90;;;;;;5042194;28;20199;-86
2022/04/05 11:25:00;;;;;;;4.15;3.75;;;8.90;99.90;;;;;;5040934;28;20217;-86
2022/04/05 11:27:29;;;;;;;6.82;3.42;;;9.10;99.90;;;;;;5042692;28;20314;-85
2022/04/05 11:30:37;;;;;;;4.30;4.00;;;9.10;99.90;;;;;;5045077;28;20202;-86
2022/04/05 11:33:37;;;;;;;3.20;3.00;;;9.00;99.90;;;;;;5046810;28;20217;-85
2022/04/05 11:36:08;;;;;;;4.07;3.28;;;9.10;99.90;;;;;;5044729;28;20199;-85
2022/04/05 11:38:37;;;;;;;3.55;3.25;;;9.10;99.90;;;;;;5043919;28;20226;-86
2022/04/05 11:41:09;;;;;;;3.65;3.35;;;9.00;99.90;;;;;;5038345;28;20210;-85
2022/04/05 11:43:40;;;;;;;5.65;5.20;;;9.10;99.90;;;;;;5036934;28;20191;-85
2022/04/05 11:46:10;;;;;;;3.45;3.22;;;9.20;99.90;;;;;;5036933;28;20213;-86
2022/04/05 11:48:41;;;;;;;5.20;4.70;;;9.20;99.90;;;;;;5036253;28;20634;-85
2022/04/05 11:51:13;;;;;;;6.47;5.90;;;9.40;99.90;;;;;;5038034;28;20191;-84
2022/04/05 11:56:28;;;;;;;5.82;5.22;;;9.60;99.90;;;;;;5041167;28;20210;-84
2022/04/05 11:59:10;;;;;;;5.13;4.72;;;9.60;99.90;;;;;;5039223;28;20238;-84
2022/04/05 12:01:39;;;;;;;6.35;5.75;;;9.40;99.90;;;;;;5038789;28;20198;-84
2022/04/05 12:04:08;;;;;;;5.78;5.13;;;9.40;99.90;;;;;;5041952;28;20214;-84
2022/04/05 12:06:54;;;;;;;5.30;4.93;;;9.50;99.90;;;;;;5042148;28;20215;-85
2022/04/05 12:09:23;;;;;;;4.80;4.45;;;9.50;99.90;;;;;;5048313;22;20234;-84
2022/04/05 12:11:51;;;;;;;5.93;5.25;;;9.50;99.90;;;;;;5043237;28;20210;-84
2022/04/05 12:14:20;;;;;;;3.28;2.92;;;9.40;99.90;;;;;;5045173;28;20276;-84
2022/04/05 12:16:49;;;;;;;5.43;4.93;;;9.30;99.90;;;;;;5043816;28;20207;-84
2022/04/05 12:19:52;;;;;;;5.60;5.15;;;9.40;99.90;;;;;;5039971;28;20233;-85
2022/04/05 12:22:20;;;;;;;7.13;5.20;;;9.50;99.90;;;;;;5044121;28;20263;-84
2022/04/05 12:24:50;;;;;;;5.70;5.20;;;9.40;99.90;;;;;;5045319;28;20229;-84
2022/04/05 12:27:21;;;;;;;5.45;4.90;;;9.40;99.90;;;;;;5039411;28;20719;-83
2022/04/05 12:32:35;;;;;;;5.45;4.95;;;9.60;99.90;;;;;;5041579;28;20210;-84
2022/04/05 12:35:03;;;;;;;6.32;5.75;;;9.70;99.90;;;;;;5041524;28;20210;-84
2022/04/05 12:37:31;;;;;;;4.53;4.07;;;9.70;99.90;;;;;;5043331;28;20229;-83
2022/04/05 12:39:58;;;;;;;5.72;5.10;;;9.70;99.90;;;;;;5043194;28;20238;-84
2022/04/05 12:42:26;;;;;;;4.30;3.90;;;9.50;99.90;;;;;;5039377;28;20208;-85
2022/04/05 12:44:58;;;;;;;6.13;5.15;;;9.50;99.90;;;;;;5041675;28;20206;-84
2022/04/05 12:47:27;;;;;;;4.30;3.90;;;9.60;99.90;;;;;;5043045;28;20208;-83
2022/04/05 12:49:58;;;;;;;4.55;4.15;;;9.50;99.90;;;;;;5039499;28;20225;-84
2022/04/05 12:52:27;;;;;;;5.43;4.93;;;9.60;99.90;;;;;;5039381;28;20201;-84
2022/04/05 12:54:57;;;;;;;4.90;4.50;;;9.70;99.90;;;;;;5042496;28;20214;-85
2022/04/05 12:57:28;;;;;;;4.10;3.80;;;9.90;99.90;;;;;;5042490;28;20209;-82
2022/04/05 13:00:08;;;;;;;4.10;3.80;;;10.30;99.90;;;;;;5042261;28;20280;-83
2022/04/05 13:02:37;;;;;;;4.50;4.10;;;11.20;99.90;;;;;;5041397;28;20217;-85
2022/04/05 13:07:54;;;;;;;4.17;3.23;;;11.90;99.90;;;;;;5045331;28;20470;-84
2022/04/05 13:10:31;;;;;;;4.23;3.83;;;11.90;99.90;;;;;;5043359;28;20526;-84
2022/04/05 13:13:12;;;;;;;4.33;3.93;;;12.30;99.90;;;;;;5045215;28;20433;-83
2022/04/05 13:15:40;;;;;;;4.17;3.87;;;12.50;99.90;;;;;;5044002;28;20447;-85